sensor_id;sensor_type;location;lat;lon;timestamp;P1;durP1;ratioP1;P2;durP2;ratioP2
30299;SDS011;17110;52.602;12.998;2024-01-25T00:01:37;21.15;;;4.45;;
30299;SDS011;17110;52.602;12.998;2024-01-25T00:06:38;17.30;;;4.30;;
30299;SDS011;17110;52.602;12.998;2024-01-25T00:11:39;14.05;;;4.00;;
30299;SDS011;17110;52.602;12.998;2024-01-25T00:16:41;25.63;;;5.07;;
30299;SDS011;17110;52.602;12.998;2024-01-25T00:21:42;22.73;;;5.32;;
30299;SDS011;17110;52.602;12.998;2024-01-25T00:26:43;18.20;;;4.78;;
30299;SDS011;17110;52.602;12.998;2024-01-25T00:31:45;16.30;;;3.75;;
30299;SDS011;17110;52.602;12.998;2024-01-25T00:36:45;12.40;;;4.47;;
30299;SDS011;17110;52.602;12.998;2024-01-25T00:41:46;16.08;;;4.10;;
30299;SDS011;17110;52.602;12.998;2024-01-25T00:46:53;11.73;;;4.35;;
30299;SDS011;17110;52.602;12.998;2024-01-25T00:51:55;21.52;;;4.72;;
30299;SDS011;17110;52.602;12.998;2024-01-25T00:56:59;24.10;;;5.28;;
30299;SDS011;17110;52.602;12.998;2024-01-25T01:02:01;15.10;;;3.90;;
30299;SDS011;17110;52.602;12.998;2024-01-25T01:07:05;8.73;;;3.58;;
30299;SDS011;17110;52.602;12.998;2024-01-25T01:12:06;17.45;;;4.35;;
30299;SDS011;17110;52.602;12.998;2024-01-25T01:17:08;20.02;;;4.65;;
30299;SDS011;17110;52.602;12.998;2024-01-25T01:22:09;14.27;;;4.05;;
30299;SDS011;17110;52.602;12.998;2024-01-25T01:27:10;17.33;;;3.80;;
30299;SDS011;17110;52.602;12.998;2024-01-25T01:32:12;17.23;;;4.70;;
30299;SDS011;17110;52.602;12.998;2024-01-25T01:37:12;17.88;;;3.97;;
30299;SDS011;17110;52.602;12.998;2024-01-25T01:42:13;22.83;;;5.00;;
30299;SDS011;17110;52.602;12.998;2024-01-25T01:47:15;11.85;;;2.92;;
30299;SDS011;17110;52.602;12.998;2024-01-25T01:52:15;24.27;;;5.22;;
30299;SDS011;17110;52.602;12.998;2024-01-25T01:57:17;11.52;;;4.28;;
30299;SDS011;17110;52.602;12.998;2024-01-25T02:02:19;18.50;;;4.20;;
30299;SDS011;17110;52.602;12.998;2024-01-25T02:07:20;16.23;;;4.65;;
30299;SDS011;17110;52.602;12.998;2024-01-25T02:12:20;18.75;;;4.22;;
30299;SDS011;17110;52.602;12.998;2024-01-25T02:17:22;18.73;;;5.00;;
30299;SDS011;17110;52.602;12.998;2024-01-25T02:22:25;22.13;;;5.45;;
30299;SDS011;17110;52.602;12.998;2024-01-25T02:27:25;21.95;;;4.63;;
30299;SDS011;17110;52.602;12.998;2024-01-25T02:32:26;17.45;;;4.85;;
30299;SDS011;17110;52.602;12.998;2024-01-25T02:37:28;19.15;;;5.03;;
30299;SDS011;17110;52.602;12.998;2024-01-25T02:42:28;16.20;;;4.68;;
30299;SDS011;17110;52.602;12.998;2024-01-25T02:47:29;15.75;;;4.05;;
30299;SDS011;17110;52.602;12.998;2024-01-25T02:52:31;17.70;;;4.40;;
30299;SDS011;17110;52.602;12.998;2024-01-25T02:57:31;22.52;;;5.78;;
30299;SDS011;17110;52.602;12.998;2024-01-25T03:02:32;18.02;;;4.57;;
30299;SDS011;17110;52.602;12.998;2024-01-25T03:07:34;16.80;;;5.05;;
30299;SDS011;17110;52.602;12.998;2024-01-25T03:12:35;18.90;;;4.50;;
30299;SDS011;17110;52.602;12.998;2024-01-25T03:17:35;19.25;;;5.80;;
30299;SDS011;17110;52.602;12.998;2024-01-25T03:22:37;20.30;;;4.97;;
30299;SDS011;17110;52.602;12.998;2024-01-25T03:27:38;15.30;;;4.00;;
30299;SDS011;17110;52.602;12.998;2024-01-25T03:32:38;14.38;;;5.05;;
30299;SDS011;17110;52.602;12.998;2024-01-25T03:37:40;18.40;;;4.15;;
30299;SDS011;17110;52.602;12.998;2024-01-25T03:42:41;20.35;;;4.85;;
30299;SDS011;17110;52.602;12.998;2024-01-25T03:47:41;23.27;;;4.88;;
30299;SDS011;17110;52.602;12.998;2024-01-25T03:52:43;20.20;;;3.88;;
30299;SDS011;17110;52.602;12.998;2024-01-25T03:57:44;14.80;;;3.38;;
30299;SDS011;17110;52.602;12.998;2024-01-25T04:02:45;15.80;;;4.60;;
30299;SDS011;17110;52.602;12.998;2024-01-25T04:07:47;16.75;;;4.90;;
30299;SDS011;17110;52.602;12.998;2024-01-25T04:12:47;17.95;;;4.05;;
30299;SDS011;17110;52.602;12.998;2024-01-25T04:17:48;18.00;;;4.80;;
30299;SDS011;17110;52.602;12.998;2024-01-25T04:22:50;15.57;;;4.68;;
30299;SDS011;17110;52.602;12.998;2024-01-25T04:27:50;18.33;;;5.53;;
30299;SDS011;17110;52.602;12.998;2024-01-25T04:32:51;19.58;;;4.28;;
30299;SDS011;17110;52.602;12.998;2024-01-25T04:37:53;17.17;;;4.55;;
30299;SDS011;17110;52.602;12.998;2024-01-25T04:42:54;20.90;;;4.18;;
30299;SDS011;17110;52.602;12.998;2024-01-25T04:47:54;20.00;;;4.65;;
30299;SDS011;17110;52.602;12.998;2024-01-25T04:52:56;21.90;;;4.35;;
30299;SDS011;17110;52.602;12.998;2024-01-25T04:57:57;21.60;;;4.97;;
30299;SDS011;17110;52.602;12.998;2024-01-25T05:02:57;19.58;;;4.70;;
30299;SDS011;17110;52.602;12.998;2024-01-25T05:07:59;18.05;;;5.28;;
30299;SDS011;17110;52.602;12.998;2024-01-25T05:13:00;17.85;;;4.05;;
30299;SDS011;17110;52.602;12.998;2024-01-25T05:18:01;14.80;;;4.47;;
30299;SDS011;17110;52.602;12.998;2024-01-25T05:23:03;20.48;;;4.95;;
30299;SDS011;17110;52.602;12.998;2024-01-25T05:28:04;19.27;;;4.57;;
30299;SDS011;17110;52.602;12.998;2024-01-25T05:33:05;16.83;;;4.38;;
30299;SDS011;17110;52.602;12.998;2024-01-25T05:38:07;16.08;;;4.82;;
30299;SDS011;17110;52.602;12.998;2024-01-25T05:43:08;22.20;;;5.15;;
30299;SDS011;17110;52.602;12.998;2024-01-25T05:48:09;15.57;;;4.10;;
30299;SDS011;17110;52.602;12.998;2024-01-25T05:53:10;18.95;;;3.40;;
30299;SDS011;17110;52.602;12.998;2024-01-25T05:58:11;14.60;;;4.15;;
30299;SDS011;17110;52.602;12.998;2024-01-25T06:03:12;14.18;;;3.65;;
30299;SDS011;17110;52.602;12.998;2024-01-25T06:08:14;16.95;;;3.33;;
30299;SDS011;17110;52.602;12.998;2024-01-25T06:13:14;12.73;;;3.70;;
30299;SDS011;17110;52.602;12.998;2024-01-25T06:18:15;17.25;;;4.05;;
30299;SDS011;17110;52.602;12.998;2024-01-25T06:23:17;11.15;;;3.30;;
30299;SDS011;17110;52.602;12.998;2024-01-25T06:28:17;15.98;;;3.95;;
30299;SDS011;17110;52.602;12.998;2024-01-25T06:33:18;18.33;;;4.43;;
30299;SDS011;17110;52.602;12.998;2024-01-25T06:38:20;12.68;;;3.80;;
30299;SDS011;17110;52.602;12.998;2024-01-25T06:43:21;17.95;;;3.30;;
30299;SDS011;17110;52.602;12.998;2024-01-25T06:48:21;11.75;;;4.13;;
30299;SDS011;17110;52.602;12.998;2024-01-25T06:53:23;14.57;;;3.70;;
30299;SDS011;17110;52.602;12.998;2024-01-25T06:58:24;15.80;;;3.80;;
30299;SDS011;17110;52.602;12.998;2024-01-25T07:03:25;14.10;;;3.20;;
30299;SDS011;17110;52.602;12.998;2024-01-25T07:08:27;13.63;;;3.20;;
30299;SDS011;17110;52.602;12.998;2024-01-25T07:13:27;15.57;;;3.78;;
30299;SDS011;17110;52.602;12.998;2024-01-25T07:18:28;16.15;;;5.13;;
30299;SDS011;17110;52.602;12.998;2024-01-25T07:23:30;14.07;;;3.17;;
30299;SDS011;17110;52.602;12.998;2024-01-25T07:28:31;16.65;;;3.63;;
30299;SDS011;17110;52.602;12.998;2024-01-25T07:33:31;17.02;;;3.92;;
30299;SDS011;17110;52.602;12.998;2024-01-25T07:38:33;20.83;;;3.58;;
30299;SDS011;17110;52.602;12.998;2024-01-25T07:43:34;17.80;;;4.63;;
30299;SDS011;17110;52.602;12.998;2024-01-25T07:48:34;11.60;;;3.83;;
30299;SDS011;17110;52.602;12.998;2024-01-25T07:53:36;17.25;;;3.30;;
30299;SDS011;17110;52.602;12.998;2024-01-25T07:58:37;16.60;;;3.78;;
30299;SDS011;17110;52.602;12.998;2024-01-25T08:03:38;12.57;;;4.13;;
30299;SDS011;17110;52.602;12.998;2024-01-25T08:08:40;18.90;;;4.15;;
30299;SDS011;17110;52.602;12.998;2024-01-25T08:13:42;15.60;;;4.43;;
30299;SDS011;17110;52.602;12.998;2024-01-25T08:18:42;18.45;;;4.03;;
30299;SDS011;17110;52.602;12.998;2024-01-25T08:23:44;16.60;;;3.72;;
30299;SDS011;17110;52.602;12.998;2024-01-25T08:28:45;16.00;;;3.50;;
30299;SDS011;17110;52.602;12.998;2024-01-25T08:33:46;18.85;;;3.30;;
30299;SDS011;17110;52.602;12.998;2024-01-25T08:38:48;15.27;;;3.60;;
30299;SDS011;17110;52.602;12.998;2024-01-25T08:43:49;18.02;;;4.53;;
30299;SDS011;17110;52.602;12.998;2024-01-25T08:48:50;16.17;;;3.78;;
30299;SDS011;17110;52.602;12.998;2024-01-25T08:53:52;13.10;;;3.47;;
30299;SDS011;17110;52.602;12.998;2024-01-25T08:58:52;13.65;;;3.35;;
30299;SDS011;17110;52.602;12.998;2024-01-25T09:03:53;14.68;;;2.92;;
30299;SDS011;17110;52.602;12.998;2024-01-25T09:08:55;16.80;;;3.92;;
30299;SDS011;17110;52.602;12.998;2024-01-25T09:13:55;14.98;;;3.80;;
30299;SDS011;17110;52.602;12.998;2024-01-25T09:18:56;15.88;;;3.25;;
30299;SDS011;17110;52.602;12.998;2024-01-25T09:23:58;18.67;;;3.92;;
30299;SDS011;17110;52.602;12.998;2024-01-25T09:28:59;14.00;;;3.20;;
30299;SDS011;17110;52.602;12.998;2024-01-25T09:33:59;13.18;;;3.58;;
30299;SDS011;17110;52.602;12.998;2024-01-25T09:39:01;12.60;;;3.78;;
30299;SDS011;17110;52.602;12.998;2024-01-25T09:44:02;12.05;;;4.03;;
30299;SDS011;17110;52.602;12.998;2024-01-25T09:49:03;11.43;;;3.45;;
30299;SDS011;17110;52.602;12.998;2024-01-25T09:54:06;18.00;;;4.03;;
30299;SDS011;17110;52.602;12.998;2024-01-25T09:59:06;14.60;;;3.38;;
30299;SDS011;17110;52.602;12.998;2024-01-25T10:04:08;15.27;;;3.15;;
30299;SDS011;17110;52.602;12.998;2024-01-25T10:09:11;15.40;;;4.20;;
30299;SDS011;17110;52.602;12.998;2024-01-25T10:14:16;18.15;;;3.65;;
30299;SDS011;17110;52.602;12.998;2024-01-25T10:19:17;13.85;;;3.38;;
30299;SDS011;17110;52.602;12.998;2024-01-25T10:24:19;19.25;;;4.00;;
30299;SDS011;17110;52.602;12.998;2024-01-25T10:29:20;16.52;;;3.78;;
30299;SDS011;17110;52.602;12.998;2024-01-25T10:34:21;11.65;;;3.00;;
30299;SDS011;17110;52.602;12.998;2024-01-25T10:39:25;14.57;;;3.53;;
30299;SDS011;17110;52.602;12.998;2024-01-25T10:44:26;14.68;;;4.10;;
30299;SDS011;17110;52.602;12.998;2024-01-25T10:49:27;16.73;;;3.03;;
30299;SDS011;17110;52.602;12.998;2024-01-25T10:54:30;15.50;;;3.65;;
30299;SDS011;17110;52.602;12.998;2024-01-25T10:59:31;14.23;;;3.25;;
30299;SDS011;17110;52.602;12.998;2024-01-25T11:04:32;9.77;;;3.53;;
30299;SDS011;17110;52.602;12.998;2024-01-25T11:09:34;12.38;;;3.38;;
30299;SDS011;17110;52.602;12.998;2024-01-25T11:14:36;13.48;;;3.08;;
30299;SDS011;17110;52.602;12.998;2024-01-25T11:19:37;12.48;;;3.28;;
30299;SDS011;17110;52.602;12.998;2024-01-25T11:24:41;12.55;;;3.38;;
30299;SDS011;17110;52.602;12.998;2024-01-25T11:29:42;21.13;;;4.40;;
30299;SDS011;17110;52.602;12.998;2024-01-25T11:34:42;9.45;;;2.65;;
30299;SDS011;17110;52.602;12.998;2024-01-25T11:39:44;13.30;;;3.55;;
30299;SDS011;17110;52.602;12.998;2024-01-25T11:44:45;9.65;;;3.78;;
30299;SDS011;17110;52.602;12.998;2024-01-25T11:49:46;16.70;;;3.72;;
30299;SDS011;17110;52.602;12.998;2024-01-25T11:54:48;12.60;;;3.25;;
30299;SDS011;17110;52.602;12.998;2024-01-25T11:59:48;14.60;;;3.53;;
30299;SDS011;17110;52.602;12.998;2024-01-25T12:04:49;12.88;;;2.92;;
30299;SDS011;17110;52.602;12.998;2024-01-25T12:09:58;14.85;;;4.07;;
30299;SDS011;17110;52.602;12.998;2024-01-25T12:14:59;12.32;;;3.30;;
30299;SDS011;17110;52.602;12.998;2024-01-25T12:20:00;13.60;;;3.45;;
30299;SDS011;17110;52.602;12.998;2024-01-25T12:25:02;17.58;;;3.38;;
30299;SDS011;17110;52.602;12.998;2024-01-25T12:30:06;8.48;;;2.72;;
30299;SDS011;17110;52.602;12.998;2024-01-25T12:35:07;13.20;;;3.08;;
30299;SDS011;17110;52.602;12.998;2024-01-25T12:40:10;10.95;;;2.53;;
30299;SDS011;17110;52.602;12.998;2024-01-25T12:45:11;11.65;;;3.63;;
30299;SDS011;17110;52.602;12.998;2024-01-25T12:50:12;17.45;;;3.63;;
30299;SDS011;17110;52.602;12.998;2024-01-25T12:55:14;13.35;;;3.22;;
30299;SDS011;17110;52.602;12.998;2024-01-25T13:00:15;10.43;;;2.55;;
30299;SDS011;17110;52.602;12.998;2024-01-25T13:05:16;12.45;;;3.05;;
30299;SDS011;17110;52.602;12.998;2024-01-25T13:10:18;13.32;;;3.55;;
30299;SDS011;17110;52.602;12.998;2024-01-25T13:15:18;10.25;;;2.90;;
30299;SDS011;17110;52.602;12.998;2024-01-25T13:20:19;11.93;;;2.83;;
30299;SDS011;17110;52.602;12.998;2024-01-25T13:25:21;11.80;;;3.83;;
30299;SDS011;17110;52.602;12.998;2024-01-25T13:30:22;11.45;;;2.78;;
30299;SDS011;17110;52.602;12.998;2024-01-25T13:35:22;9.15;;;2.88;;
30299;SDS011;17110;52.602;12.998;2024-01-25T13:40:24;9.77;;;3.38;;
30299;SDS011;17110;52.602;12.998;2024-01-25T13:45:25;9.05;;;3.00;;
30299;SDS011;17110;52.602;12.998;2024-01-25T13:50:25;11.02;;;3.22;;
30299;SDS011;17110;52.602;12.998;2024-01-25T13:55:27;10.00;;;2.58;;
30299;SDS011;17110;52.602;12.998;2024-01-25T14:00:28;11.55;;;2.90;;
30299;SDS011;17110;52.602;12.998;2024-01-25T14:05:29;8.93;;;2.90;;
30299;SDS011;17110;52.602;12.998;2024-01-25T14:10:31;11.27;;;2.60;;
30299;SDS011;17110;52.602;12.998;2024-01-25T14:15:31;13.55;;;3.40;;
30299;SDS011;17110;52.602;12.998;2024-01-25T14:20:32;6.53;;;2.38;;
30299;SDS011;17110;52.602;12.998;2024-01-25T14:25:34;8.40;;;2.40;;
30299;SDS011;17110;52.602;12.998;2024-01-25T14:30:34;17.90;;;3.30;;
30299;SDS011;17110;52.602;12.998;2024-01-25T14:35:35;10.68;;;3.13;;
30299;SDS011;17110;52.602;12.998;2024-01-25T14:40:37;8.27;;;2.60;;
30299;SDS011;17110;52.602;12.998;2024-01-25T14:45:38;11.65;;;2.50;;
30299;SDS011;17110;52.602;12.998;2024-01-25T14:50:38;12.07;;;2.85;;
30299;SDS011;17110;52.602;12.998;2024-01-25T14:55:40;13.63;;;2.83;;
30299;SDS011;17110;52.602;12.998;2024-01-25T15:00:41;10.07;;;3.35;;
30299;SDS011;17110;52.602;12.998;2024-01-25T15:05:41;15.52;;;3.42;;
30299;SDS011;17110;52.602;12.998;2024-01-25T15:10:43;10.32;;;3.33;;
30299;SDS011;17110;52.602;12.998;2024-01-25T15:15:44;12.38;;;3.38;;
30299;SDS011;17110;52.602;12.998;2024-01-25T15:20:45;18.38;;;4.15;;
30299;SDS011;17110;52.602;12.998;2024-01-25T15:25:46;14.10;;;3.22;;
30299;SDS011;17110;52.602;12.998;2024-01-25T15:30:47;9.88;;;3.45;;
30299;SDS011;17110;52.602;12.998;2024-01-25T15:35:48;17.80;;;3.70;;
30299;SDS011;17110;52.602;12.998;2024-01-25T15:40:50;15.45;;;3.45;;
30299;SDS011;17110;52.602;12.998;2024-01-25T15:45:51;16.15;;;3.88;;
30299;SDS011;17110;52.602;12.998;2024-01-25T15:50:51;14.45;;;3.33;;
30299;SDS011;17110;52.602;12.998;2024-01-25T15:55:53;11.48;;;2.90;;
30299;SDS011;17110;52.602;12.998;2024-01-25T16:00:54;17.50;;;2.70;;
30299;SDS011;17110;52.602;12.998;2024-01-25T16:05:55;14.38;;;3.53;;
30299;SDS011;17110;52.602;12.998;2024-01-25T16:10:57;13.20;;;3.10;;
30299;SDS011;17110;52.602;12.998;2024-01-25T16:15:58;7.85;;;3.13;;
30299;SDS011;17110;52.602;12.998;2024-01-25T16:20:58;13.10;;;3.17;;
30299;SDS011;17110;52.602;12.998;2024-01-25T16:26:00;11.18;;;2.88;;
30299;SDS011;17110;52.602;12.998;2024-01-25T16:31:01;10.55;;;3.00;;
30299;SDS011;17110;52.602;12.998;2024-01-25T16:36:02;16.30;;;3.53;;
30299;SDS011;17110;52.602;12.998;2024-01-25T16:41:04;13.27;;;4.07;;
30299;SDS011;17110;52.602;12.998;2024-01-25T16:46:04;10.93;;;3.05;;
30299;SDS011;17110;52.602;12.998;2024-01-25T16:51:05;16.23;;;3.95;;
30299;SDS011;17110;52.602;12.998;2024-01-25T16:56:07;19.10;;;3.45;;
30299;SDS011;17110;52.602;12.998;2024-01-25T17:01:08;17.45;;;4.30;;
30299;SDS011;17110;52.602;12.998;2024-01-25T17:06:08;23.52;;;4.20;;
30299;SDS011;17110;52.602;12.998;2024-01-25T17:11:10;19.80;;;3.80;;
30299;SDS011;17110;52.602;12.998;2024-01-25T17:16:11;16.15;;;3.67;;
30299;SDS011;17110;52.602;12.998;2024-01-25T17:21:11;16.75;;;4.50;;
30299;SDS011;17110;52.602;12.998;2024-01-25T17:26:14;13.68;;;4.63;;
30299;SDS011;17110;52.602;12.998;2024-01-25T17:31:15;11.70;;;4.53;;
30299;SDS011;17110;52.602;12.998;2024-01-25T17:36:16;14.70;;;4.75;;
30299;SDS011;17110;52.602;12.998;2024-01-25T17:41:17;16.85;;;5.30;;
30299;SDS011;17110;52.602;12.998;2024-01-25T17:46:18;13.35;;;4.75;;
30299;SDS011;17110;52.602;12.998;2024-01-25T17:51:19;15.98;;;4.57;;
30299;SDS011;17110;52.602;12.998;2024-01-25T17:56:21;12.77;;;3.95;;
30299;SDS011;17110;52.602;12.998;2024-01-25T18:01:21;21.35;;;4.13;;
30299;SDS011;17110;52.602;12.998;2024-01-25T18:06:22;16.30;;;4.22;;
30299;SDS011;17110;52.602;12.998;2024-01-25T18:11:24;20.88;;;5.00;;
30299;SDS011;17110;52.602;12.998;2024-01-25T18:16:24;18.00;;;4.65;;
30299;SDS011;17110;52.602;12.998;2024-01-25T18:21:25;15.10;;;4.35;;
30299;SDS011;17110;52.602;12.998;2024-01-25T18:26:27;17.17;;;4.85;;
30299;SDS011;17110;52.602;12.998;2024-01-25T18:31:28;18.75;;;5.15;;
30299;SDS011;17110;52.602;12.998;2024-01-25T18:36:28;14.38;;;3.83;;
30299;SDS011;17110;52.602;12.998;2024-01-25T18:41:30;16.60;;;4.10;;
30299;SDS011;17110;52.602;12.998;2024-01-25T18:46:31;11.73;;;4.25;;
30299;SDS011;17110;52.602;12.998;2024-01-25T18:51:31;11.10;;;4.13;;
30299;SDS011;17110;52.602;12.998;2024-01-25T18:56:34;12.20;;;5.07;;
30299;SDS011;17110;52.602;12.998;2024-01-25T19:01:35;13.18;;;5.35;;
30299;SDS011;17110;52.602;12.998;2024-01-25T19:06:36;15.88;;;4.97;;
30299;SDS011;17110;52.602;12.998;2024-01-25T19:11:39;15.57;;;5.10;;
30299;SDS011;17110;52.602;12.998;2024-01-25T19:16:39;15.35;;;5.25;;
30299;SDS011;17110;52.602;12.998;2024-01-25T19:21:40;16.80;;;6.20;;
30299;SDS011;17110;52.602;12.998;2024-01-25T19:26:42;16.40;;;5.13;;
30299;SDS011;17110;52.602;12.998;2024-01-25T19:31:43;10.70;;;4.68;;
30299;SDS011;17110;52.602;12.998;2024-01-25T19:36:44;16.92;;;6.00;;
30299;SDS011;17110;52.602;12.998;2024-01-25T19:41:46;11.35;;;5.63;;
30299;SDS011;17110;52.602;12.998;2024-01-25T19:46:46;17.52;;;5.05;;
30299;SDS011;17110;52.602;12.998;2024-01-25T19:51:47;11.90;;;4.75;;
30299;SDS011;17110;52.602;12.998;2024-01-25T19:56:49;19.52;;;5.82;;
30299;SDS011;17110;52.602;12.998;2024-01-25T20:01:50;11.15;;;5.18;;
30299;SDS011;17110;52.602;12.998;2024-01-25T20:06:51;18.35;;;5.60;;
30299;SDS011;17110;52.602;12.998;2024-01-25T20:11:53;17.25;;;5.72;;
30299;SDS011;17110;52.602;12.998;2024-01-25T20:16:54;15.95;;;5.22;;
30299;SDS011;17110;52.602;12.998;2024-01-25T20:21:54;13.98;;;5.13;;
30299;SDS011;17110;52.602;12.998;2024-01-25T20:26:56;18.48;;;5.28;;
30299;SDS011;17110;52.602;12.998;2024-01-25T20:31:57;12.88;;;5.30;;
30299;SDS011;17110;52.602;12.998;2024-01-25T20:36:58;14.13;;;4.82;;
30299;SDS011;17110;52.602;12.998;2024-01-25T20:42:00;15.50;;;4.43;;
30299;SDS011;17110;52.602;12.998;2024-01-25T20:47:00;14.95;;;4.40;;
30299;SDS011;17110;52.602;12.998;2024-01-25T20:52:01;19.27;;;4.93;;
30299;SDS011;17110;52.602;12.998;2024-01-25T20:57:03;15.93;;;6.60;;
30299;SDS011;17110;52.602;12.998;2024-01-25T21:02:05;18.30;;;5.40;;
30299;SDS011;17110;52.602;12.998;2024-01-25T21:07:06;18.88;;;5.10;;
30299;SDS011;17110;52.602;12.998;2024-01-25T21:12:10;18.48;;;5.25;;
30299;SDS011;17110;52.602;12.998;2024-01-25T21:17:11;17.27;;;5.07;;
30299;SDS011;17110;52.602;12.998;2024-01-25T21:22:12;17.33;;;5.38;;
30299;SDS011;17110;52.602;12.998;2024-01-25T21:27:14;12.82;;;4.72;;
30299;SDS011;17110;52.602;12.998;2024-01-25T21:32:15;15.10;;;5.10;;
30299;SDS011;17110;52.602;12.998;2024-01-25T21:37:15;14.73;;;5.30;;
30299;SDS011;17110;52.602;12.998;2024-01-25T21:42:17;10.93;;;5.18;;
30299;SDS011;17110;52.602;12.998;2024-01-25T21:47:18;18.35;;;5.93;;
30299;SDS011;17110;52.602;12.998;2024-01-25T21:52:18;18.90;;;5.38;;
30299;SDS011;17110;52.602;12.998;2024-01-25T21:57:20;11.20;;;5.10;;
30299;SDS011;17110;52.602;12.998;2024-01-25T22:02:21;15.75;;;5.05;;
30299;SDS011;17110;52.602;12.998;2024-01-25T22:07:22;17.63;;;5.38;;
30299;SDS011;17110;52.602;12.998;2024-01-25T22:12:24;13.50;;;5.35;;
30299;SDS011;17110;52.602;12.998;2024-01-25T22:17:24;14.10;;;4.90;;
30299;SDS011;17110;52.602;12.998;2024-01-25T22:22:25;12.43;;;5.15;;
30299;SDS011;17110;52.602;12.998;2024-01-25T22:27:27;15.68;;;4.60;;
30299;SDS011;17110;52.602;12.998;2024-01-25T22:32:28;14.95;;;4.93;;
30299;SDS011;17110;52.602;12.998;2024-01-25T22:37:28;17.17;;;5.07;;
30299;SDS011;17110;52.602;12.998;2024-01-25T22:42:30;21.02;;;5.28;;
30299;SDS011;17110;52.602;12.998;2024-01-25T22:47:31;11.88;;;5.07;;
30299;SDS011;17110;52.602;12.998;2024-01-25T22:52:31;13.77;;;4.63;;
30299;SDS011;17110;52.602;12.998;2024-01-25T22:57:33;15.27;;;4.43;;
30299;SDS011;17110;52.602;12.998;2024-01-25T23:02:34;12.30;;;4.88;;
30299;SDS011;17110;52.602;12.998;2024-01-25T23:07:35;11.70;;;4.68;;
30299;SDS011;17110;52.602;12.998;2024-01-25T23:12:37;12.90;;;4.78;;
30299;SDS011;17110;52.602;12.998;2024-01-25T23:17:38;14.65;;;4.90;;
30299;SDS011;17110;52.602;12.998;2024-01-25T23:22:38;12.40;;;5.03;;
30299;SDS011;17110;52.602;12.998;2024-01-25T23:27:40;13.75;;;5.18;;
30299;SDS011;17110;52.602;12.998;2024-01-25T23:32:41;10.18;;;4.85;;
30299;SDS011;17110;52.602;12.998;2024-01-25T23:37:42;9.40;;;4.28;;
30299;SDS011;17110;52.602;12.998;2024-01-25T23:42:44;15.82;;;4.80;;
30299;SDS011;17110;52.602;12.998;2024-01-25T23:47:44;15.65;;;5.25;;
30299;SDS011;17110;52.602;12.998;2024-01-25T23:52:45;8.70;;;4.40;;
30299;SDS011;17110;52.602;12.998;2024-01-25T23:57:47;9.35;;;5.07;;
